EDDE/ERF METAR and TAF weather

Enter ICAO airport designator
Station Type Date Time Source
EDDE METAR 2020/02/21 15:20 UTC NOAA

EDDE 211520Z 24016KT 9999 FEW036 06/M01 Q1025 NOSIG


Station Type Date Time Source
EDDE Decoded METAR 2020/02/21 15:20 UTC NOAA

Erfurt-Bindersleben, Germany (EDDE) 50-59N 010-58E 322M
Feb 21, 2020 - 10:20 AM EST / 2020.02.21 1520 UTC
Wind: from the WSW (240 degrees) at 18 MPH (16 KT):0
Visibility: greater than 7 mile(s):0
Sky conditions: mostly clear
Temperature: 42 F (6 C)
Dew Point: 30 F (-1 C)
Relative Humidity: 60%
Pressure (altimeter): 30.27 in. Hg (1025 hPa)
ob: EDDE 211520Z 24016KT 9999 FEW036 06/M01 Q1025 NOSIG
cycle: 15

Station Type Date Time Source
EDDE TAF 2020/02/21 12:27 UTC NOAA

TAF TAF EDDE 211100Z 2112/2212 25015KT CAVOK
TEMPO 2112/2116 25020G30KT
TEMPO 2123/2204 23015G25KT
BECMG 2204/2206 24020G35KT

Example: see airport list